createdAt,value
2019-01-12T17:08:35.452Z,35.99
2019-01-12T17:12:39.398Z,35.85
2019-01-12T17:17:14.808Z,35.70
2019-01-12T17:21:16.004Z,35.46
2019-01-12T17:25:18.708Z,35.27
2019-01-12T17:29:19.827Z,35.08
2019-01-12T17:33:20.916Z,34.82
2019-01-12T17:37:21.895Z,34.56
2019-01-12T17:41:22.912Z,34.37
2019-01-12T17:45:25.708Z,34.02
2019-01-12T17:49:27.843Z,33.76
2019-01-12T17:53:29.056Z,33.62
2019-01-12T17:57:30.178Z,33.56
2019-01-12T18:01:31.229Z,33.47
2019-01-12T18:05:32.362Z,33.37
2019-01-12T18:09:33.952Z,33.33
2019-01-12T18:13:39.197Z,33.23
2019-01-12T18:17:41.706Z,33.31
2019-01-12T18:21:42.833Z,34.33
2019-01-12T18:25:43.888Z,33.48
2019-01-12T18:29:44.964Z,33.03
2019-01-12T18:33:45.965Z,32.83
2019-01-12T18:37:47.019Z,33.31
2019-01-12T18:41:48.037Z,33.33
2019-01-12T18:45:49.094Z,32.94
2019-01-12T18:49:50.166Z,32.72
2019-01-12T18:53:51.433Z,32.93
2019-01-12T18:57:52.397Z,33.60
2019-01-12T19:01:53.632Z,33.50
2019-01-12T19:05:54.676Z,33.53
2019-01-12T19:09:55.745Z,33.65
2019-01-12T19:14:01.630Z,33.72
2019-01-12T19:18:02.716Z,33.72
2019-01-12T19:22:03.839Z,34.04
2019-01-12T19:26:05.462Z,34.52
2019-01-12T19:30:08.951Z,35.19
2019-01-12T19:34:10.075Z,34.96
2019-01-12T19:38:11.241Z,34.87
2019-01-12T19:42:12.314Z,34.83
2019-01-12T19:46:13.330Z,34.85
2019-01-12T19:50:17.683Z,34.95
2019-01-12T19:54:18.728Z,34.89
2019-01-12T19:58:19.811Z,34.85
2019-01-12T20:02:20.974Z,34.83
2019-01-12T20:06:25.025Z,34.94
2019-01-12T20:10:26.231Z,34.95
2019-01-12T20:14:27.439Z,34.87
2019-01-12T20:18:28.739Z,34.79
2019-01-12T20:22:32.470Z,34.81
2019-01-12T20:26:34.290Z,34.76
2019-01-12T20:30:50.178Z,34.84
2019-01-12T20:34:57.349Z,34.78
2019-01-12T20:39:36.415Z,34.72
2019-01-12T20:44:35.507Z,34.70
2019-01-12T20:48:55.750Z,34.69
2019-01-12T20:53:08.540Z,34.77
2019-01-12T20:57:38.194Z,34.81
2019-01-12T21:02:18.244Z,34.80
2019-01-12T21:06:43.709Z,34.76
2019-01-12T21:11:03.026Z,34.71
2019-01-12T21:15:18.730Z,34.63
2019-01-12T21:19:21.417Z,34.67
2019-01-12T21:23:22.493Z,34.74
2019-01-12T21:27:23.936Z,34.73
2019-01-12T21:31:25.218Z,34.74
2019-01-12T21:35:26.268Z,34.70
2019-01-12T21:39:27.360Z,34.68
2019-01-12T21:43:28.349Z,34.63
2019-01-12T21:47:29.491Z,34.62
2019-01-12T21:51:30.510Z,34.56
2019-01-12T21:55:31.618Z,34.56
2019-01-12T21:59:32.662Z,34.50
